sensor_id;sensor_type;location;lat;lon;timestamp;temperature;humidity
36652;DHT22;53334;51.976;20.144;2023-12-14T00:01:31;26.00;48.90
36652;DHT22;53334;51.976;20.144;2023-12-14T00:04:05;26.00;48.90
36652;DHT22;53334;51.976;20.144;2023-12-14T00:06:38;26.00;48.90
36652;DHT22;53334;51.976;20.144;2023-12-14T00:09:11;26.00;48.90
36652;DHT22;53334;51.976;20.144;2023-12-14T00:11:44;26.00;48.80
36652;DHT22;53334;51.976;20.144;2023-12-14T00:14:19;26.00;48.80
36652;DHT22;53334;51.976;20.144;2023-12-14T00:16:52;26.00;48.70
36652;DHT22;53334;51.976;20.144;2023-12-14T00:19:25;26.00;48.70
36652;DHT22;53334;51.976;20.144;2023-12-14T00:21:59;26.00;48.60
36652;DHT22;53334;51.976;20.144;2023-12-14T00:24:32;26.00;48.60
36652;DHT22;53334;51.976;20.144;2023-12-14T00:27:05;26.00;48.50
36652;DHT22;53334;51.976;20.144;2023-12-14T00:29:40;26.00;48.50
36652;DHT22;53334;51.976;20.144;2023-12-14T00:32:13;26.00;48.40
36652;DHT22;53334;51.976;20.144;2023-12-14T00:34:46;26.00;48.40
36652;DHT22;53334;51.976;20.144;2023-12-14T00:37:20;26.00;48.40
36652;DHT22;53334;51.976;20.144;2023-12-14T00:39:54;26.00;48.40
36652;DHT22;53334;51.976;20.144;2023-12-14T00:42:27;26.00;48.30
36652;DHT22;53334;51.976;20.144;2023-12-14T00:45:01;26.00;48.30
36652;DHT22;53334;51.976;20.144;2023-12-14T00:47:35;26.00;48.30
36652;DHT22;53334;51.976;20.144;2023-12-14T00:50:09;26.00;48.30
36652;DHT22;53334;51.976;20.144;2023-12-14T00:52:42;26.00;48.30
36652;DHT22;53334;51.976;20.144;2023-12-14T00:55:15;26.00;48.30
36652;DHT22;53334;51.976;20.144;2023-12-14T00:57:49;26.00;48.20
36652;DHT22;53334;51.976;20.144;2023-12-14T01:00:23;26.00;48.20
36652;DHT22;53334;51.976;20.144;2023-12-14T01:02:56;26.00;48.20
36652;DHT22;53334;51.976;20.144;2023-12-14T01:05:30;26.00;48.70
36652;DHT22;53334;51.976;20.144;2023-12-14T01:08:03;26.00;48.10
36652;DHT22;53334;51.976;20.144;2023-12-14T01:10:37;26.00;48.00
36652;DHT22;53334;51.976;20.144;2023-12-14T01:13:10;26.00;48.00
36652;DHT22;53334;51.976;20.144;2023-12-14T01:15:45;26.00;47.90
36652;DHT22;53334;51.976;20.144;2023-12-14T01:18:18;26.00;47.90
36652;DHT22;53334;51.976;20.144;2023-12-14T01:20:51;26.00;47.80
36652;DHT22;53334;51.976;20.144;2023-12-14T01:23:24;26.00;47.80
36652;DHT22;53334;51.976;20.144;2023-12-14T01:25:58;26.00;47.80
36652;DHT22;53334;51.976;20.144;2023-12-14T01:28:31;26.00;48.20
36652;DHT22;53334;51.976;20.144;2023-12-14T01:31:06;26.00;48.40
36652;DHT22;53334;51.976;20.144;2023-12-14T01:33:39;26.00;48.80
36652;DHT22;53334;51.976;20.144;2023-12-14T01:36:20;26.00;49.10
36652;DHT22;53334;51.976;20.144;2023-12-14T01:38:53;26.00;49.50
36652;DHT22;53334;51.976;20.144;2023-12-14T01:41:26;26.00;49.40
36652;DHT22;53334;51.976;20.144;2023-12-14T01:43:59;26.00;49.60
36652;DHT22;53334;51.976;20.144;2023-12-14T01:46:34;26.00;50.20
36652;DHT22;53334;51.976;20.144;2023-12-14T01:49:07;26.00;49.70
36652;DHT22;53334;51.976;20.144;2023-12-14T01:51:40;26.00;49.80
36652;DHT22;53334;51.976;20.144;2023-12-14T01:54:14;26.00;49.80
36652;DHT22;53334;51.976;20.144;2023-12-14T01:56:47;26.00;49.90
36652;DHT22;53334;51.976;20.144;2023-12-14T01:59:20;26.00;49.90
36652;DHT22;53334;51.976;20.144;2023-12-14T02:01:56;26.10;49.90
36652;DHT22;53334;51.976;20.144;2023-12-14T02:04:29;26.00;49.90
36652;DHT22;53334;51.976;20.144;2023-12-14T02:07:03;26.00;49.90
36652;DHT22;53334;51.976;20.144;2023-12-14T02:09:36;26.00;49.80
36652;DHT22;53334;51.976;20.144;2023-12-14T02:12:09;26.00;49.80
36652;DHT22;53334;51.976;20.144;2023-12-14T02:14:43;26.00;49.80
36652;DHT22;53334;51.976;20.144;2023-12-14T02:17:17;26.00;49.70
36652;DHT22;53334;51.976;20.144;2023-12-14T02:19:51;26.00;49.60
36652;DHT22;53334;51.976;20.144;2023-12-14T02:22:24;26.00;49.60
36652;DHT22;53334;51.976;20.144;2023-12-14T02:24:59;26.00;49.60
36652;DHT22;53334;51.976;20.144;2023-12-14T02:27:32;26.00;49.60
36652;DHT22;53334;51.976;20.144;2023-12-14T02:30:06;26.00;50.20
36652;DHT22;53334;51.976;20.144;2023-12-14T02:32:40;26.00;49.60
36652;DHT22;53334;51.976;20.144;2023-12-14T02:35:13;26.00;49.60
36652;DHT22;53334;51.976;20.144;2023-12-14T02:37:46;26.00;49.50
36652;DHT22;53334;51.976;20.144;2023-12-14T02:40:21;26.00;49.50
36652;DHT22;53334;51.976;20.144;2023-12-14T02:42:54;26.00;49.50
36652;DHT22;53334;51.976;20.144;2023-12-14T02:45:27;26.00;49.50
36652;DHT22;53334;51.976;20.144;2023-12-14T02:48:01;26.00;49.60
36652;DHT22;53334;51.976;20.144;2023-12-14T02:50:34;26.00;49.50
36652;DHT22;53334;51.976;20.144;2023-12-14T02:53:07;26.00;49.50
36652;DHT22;53334;51.976;20.144;2023-12-14T02:55:42;26.00;49.40
36652;DHT22;53334;51.976;20.144;2023-12-14T02:58:15;26.00;49.40
36652;DHT22;53334;51.976;20.144;2023-12-14T03:00:48;26.00;49.40
36652;DHT22;53334;51.976;20.144;2023-12-14T03:03:22;26.00;49.30
36652;DHT22;53334;51.976;20.144;2023-12-14T03:05:55;26.00;49.50
36652;DHT22;53334;51.976;20.144;2023-12-14T03:08:28;26.00;49.30
36652;DHT22;53334;51.976;20.144;2023-12-14T03:11:03;26.00;49.30
36652;DHT22;53334;51.976;20.144;2023-12-14T03:13:36;26.00;49.20
36652;DHT22;53334;51.976;20.144;2023-12-14T03:16:10;26.00;49.20
36652;DHT22;53334;51.976;20.144;2023-12-14T03:18:43;26.00;49.20
36652;DHT22;53334;51.976;20.144;2023-12-14T03:21:16;26.00;49.10
36652;DHT22;53334;51.976;20.144;2023-12-14T03:23:49;26.00;49.10
36652;DHT22;53334;51.976;20.144;2023-12-14T03:26:24;26.00;49.00
36652;DHT22;53334;51.976;20.144;2023-12-14T03:28:57;26.00;49.00
36652;DHT22;53334;51.976;20.144;2023-12-14T03:31:30;26.00;48.90
36652;DHT22;53334;51.976;20.144;2023-12-14T03:34:03;26.00;48.90
36652;DHT22;53334;51.976;20.144;2023-12-14T03:36:37;26.00;48.90
36652;DHT22;53334;51.976;20.144;2023-12-14T03:39:10;26.00;48.90
36652;DHT22;53334;51.976;20.144;2023-12-14T03:41:45;26.00;48.80
36652;DHT22;53334;51.976;20.144;2023-12-14T03:44:18;26.00;48.70
36652;DHT22;53334;51.976;20.144;2023-12-14T03:46:51;26.00;48.70
36652;DHT22;53334;51.976;20.144;2023-12-14T03:49:26;26.00;48.70
36652;DHT22;53334;51.976;20.144;2023-12-14T03:51:59;26.00;48.70
36652;DHT22;53334;51.976;20.144;2023-12-14T03:54:32;26.00;48.60
36652;DHT22;53334;51.976;20.144;2023-12-14T03:57:06;26.00;48.60
36652;DHT22;53334;51.976;20.144;2023-12-14T03:59:40;26.00;48.50
36652;DHT22;53334;51.976;20.144;2023-12-14T04:02:13;26.00;48.50
36652;DHT22;53334;51.976;20.144;2023-12-14T04:04:46;26.00;48.50
36652;DHT22;53334;51.976;20.144;2023-12-14T04:07:19;26.00;48.50
36652;DHT22;53334;51.976;20.144;2023-12-14T04:09:53;26.00;48.40
36652;DHT22;53334;51.976;20.144;2023-12-14T04:12:28;26.00;48.40
36652;DHT22;53334;51.976;20.144;2023-12-14T04:15:01;26.00;48.40
36652;DHT22;53334;51.976;20.144;2023-12-14T04:17:36;26.00;48.40
36652;DHT22;53334;51.976;20.144;2023-12-14T04:20:10;26.00;48.30
36652;DHT22;53334;51.976;20.144;2023-12-14T04:22:44;26.00;48.30
36652;DHT22;53334;51.976;20.144;2023-12-14T04:25:17;26.00;48.30
36652;DHT22;53334;51.976;20.144;2023-12-14T04:27:52;26.00;48.30
36652;DHT22;53334;51.976;20.144;2023-12-14T04:30:25;26.00;48.30
36652;DHT22;53334;51.976;20.144;2023-12-14T04:32:58;26.00;48.30
36652;DHT22;53334;51.976;20.144;2023-12-14T04:35:31;26.00;48.30
36652;DHT22;53334;51.976;20.144;2023-12-14T04:38:08;26.00;48.40
36652;DHT22;53334;51.976;20.144;2023-12-14T04:40:41;26.00;48.40
36652;DHT22;53334;51.976;20.144;2023-12-14T04:43:16;26.00;48.30
36652;DHT22;53334;51.976;20.144;2023-12-14T04:45:49;26.00;48.30
36652;DHT22;53334;51.976;20.144;2023-12-14T04:48:22;26.00;48.30
36652;DHT22;53334;51.976;20.144;2023-12-14T04:50:55;26.00;48.30
36652;DHT22;53334;51.976;20.144;2023-12-14T04:53:28;26.00;48.30
36652;DHT22;53334;51.976;20.144;2023-12-14T04:56:02;26.00;48.30
36652;DHT22;53334;51.976;20.144;2023-12-14T04:58:36;26.00;48.90
36652;DHT22;53334;51.976;20.144;2023-12-14T05:01:09;26.00;48.20
36652;DHT22;53334;51.976;20.144;2023-12-14T05:03:44;26.00;48.30
36652;DHT22;53334;51.976;20.144;2023-12-14T05:06:17;26.00;48.30
36652;DHT22;53334;51.976;20.144;2023-12-14T05:08:50;26.00;48.40
36652;DHT22;53334;51.976;20.144;2023-12-14T05:11:23;26.00;48.50
36652;DHT22;53334;51.976;20.144;2023-12-14T05:13:58;26.00;48.60
36652;DHT22;53334;51.976;20.144;2023-12-14T05:16:31;26.00;49.20
36652;DHT22;53334;51.976;20.144;2023-12-14T05:19:04;26.00;48.60
36652;DHT22;53334;51.976;20.144;2023-12-14T05:21:37;26.00;48.40
36652;DHT22;53334;51.976;20.144;2023-12-14T05:24:10;26.00;48.40
36652;DHT22;53334;51.976;20.144;2023-12-14T05:26:43;26.00;48.30
36652;DHT22;53334;51.976;20.144;2023-12-14T05:29:18;26.00;48.30
36652;DHT22;53334;51.976;20.144;2023-12-14T05:31:53;25.90;48.20
36652;DHT22;53334;51.976;20.144;2023-12-14T05:34:26;26.00;48.20
36652;DHT22;53334;51.976;20.144;2023-12-14T05:37:00;26.00;48.00
36652;DHT22;53334;51.976;20.144;2023-12-14T05:39:33;26.00;48.00
36652;DHT22;53334;51.976;20.144;2023-12-14T05:42:06;26.00;48.40
36652;DHT22;53334;51.976;20.144;2023-12-14T05:44:41;26.00;47.80
36652;DHT22;53334;51.976;20.144;2023-12-14T05:47:16;26.00;47.80
36652;DHT22;53334;51.976;20.144;2023-12-14T05:49:49;25.90;48.20
36652;DHT22;53334;51.976;20.144;2023-12-14T05:52:22;26.00;47.60
36652;DHT22;53334;51.976;20.144;2023-12-14T05:54:56;26.00;47.60
36652;DHT22;53334;51.976;20.144;2023-12-14T05:57:35;25.90;47.40
36652;DHT22;53334;51.976;20.144;2023-12-14T06:00:10;25.90;47.40
36652;DHT22;53334;51.976;20.144;2023-12-14T06:02:43;25.90;47.30
36652;DHT22;53334;51.976;20.144;2023-12-14T06:05:17;25.90;47.30
36652;DHT22;53334;51.976;20.144;2023-12-14T06:07:50;26.00;47.30
36652;DHT22;53334;51.976;20.144;2023-12-14T06:10:23;25.90;47.20
36652;DHT22;53334;51.976;20.144;2023-12-14T06:12:56;25.90;47.10
36652;DHT22;53334;51.976;20.144;2023-12-14T06:15:31;25.90;47.00
36652;DHT22;53334;51.976;20.144;2023-12-14T06:18:04;25.90;47.00
36652;DHT22;53334;51.976;20.144;2023-12-14T06:20:38;25.90;46.90
36652;DHT22;53334;51.976;20.144;2023-12-14T06:23:12;25.90;46.90
36652;DHT22;53334;51.976;20.144;2023-12-14T06:25:45;25.90;46.90
36652;DHT22;53334;51.976;20.144;2023-12-14T06:28:19;25.90;46.80
36652;DHT22;53334;51.976;20.144;2023-12-14T06:30:54;25.90;46.70
36652;DHT22;53334;51.976;20.144;2023-12-14T06:33:27;25.90;46.70
36652;DHT22;53334;51.976;20.144;2023-12-14T06:36:03;25.90;46.70
36652;DHT22;53334;51.976;20.144;2023-12-14T06:38:38;25.90;46.70
36652;DHT22;53334;51.976;20.144;2023-12-14T06:41:18;25.90;46.60
36652;DHT22;53334;51.976;20.144;2023-12-14T06:43:52;25.90;46.60
36652;DHT22;53334;51.976;20.144;2023-12-14T06:46:26;25.90;46.50
36652;DHT22;53334;51.976;20.144;2023-12-14T06:48:59;25.90;46.50
36652;DHT22;53334;51.976;20.144;2023-12-14T06:51:33;25.90;46.40
36652;DHT22;53334;51.976;20.144;2023-12-14T06:54:06;25.90;46.40
36652;DHT22;53334;51.976;20.144;2023-12-14T06:56:39;25.90;46.30
36652;DHT22;53334;51.976;20.144;2023-12-14T06:59:12;25.90;46.90
36652;DHT22;53334;51.976;20.144;2023-12-14T07:01:47;25.90;46.30
36652;DHT22;53334;51.976;20.144;2023-12-14T07:04:20;25.90;46.30
36652;DHT22;53334;51.976;20.144;2023-12-14T07:06:53;25.90;46.80
36652;DHT22;53334;51.976;20.144;2023-12-14T07:09:26;25.90;46.20
36652;DHT22;53334;51.976;20.144;2023-12-14T07:12:00;25.90;46.20
36652;DHT22;53334;51.976;20.144;2023-12-14T07:14:34;25.90;46.10
36652;DHT22;53334;51.976;20.144;2023-12-14T07:17:09;25.90;46.10
36652;DHT22;53334;51.976;20.144;2023-12-14T07:19:42;25.90;46.10
36652;DHT22;53334;51.976;20.144;2023-12-14T07:22:15;25.90;46.00
36652;DHT22;53334;51.976;20.144;2023-12-14T07:24:48;25.80;46.00
36652;DHT22;53334;51.976;20.144;2023-12-14T07:27:30;25.80;46.10
36652;DHT22;53334;51.976;20.144;2023-12-14T07:30:04;25.80;46.60
36652;DHT22;53334;51.976;20.144;2023-12-14T07:32:39;25.90;46.90
36652;DHT22;53334;51.976;20.144;2023-12-14T07:35:12;25.90;46.80
36652;DHT22;53334;51.976;20.144;2023-12-14T07:37:45;25.80;46.70
36652;DHT22;53334;51.976;20.144;2023-12-14T07:40:19;25.80;46.70
36652;DHT22;53334;51.976;20.144;2023-12-14T07:42:52;25.90;46.80
36652;DHT22;53334;51.976;20.144;2023-12-14T07:45:25;25.90;46.80
36652;DHT22;53334;51.976;20.144;2023-12-14T07:47:59;25.80;46.70
36652;DHT22;53334;51.976;20.144;2023-12-14T07:50:33;25.90;46.70
36652;DHT22;53334;51.976;20.144;2023-12-14T07:53:06;25.90;46.70
36652;DHT22;53334;51.976;20.144;2023-12-14T07:55:39;25.90;47.20
36652;DHT22;53334;51.976;20.144;2023-12-14T07:58:13;25.90;46.80
36652;DHT22;53334;51.976;20.144;2023-12-14T08:00:47;25.80;46.70
36652;DHT22;53334;51.976;20.144;2023-12-14T08:03:22;25.90;47.00
36652;DHT22;53334;51.976;20.144;2023-12-14T08:05:55;25.90;47.60
36652;DHT22;53334;51.976;20.144;2023-12-14T08:08:29;25.90;47.90
36652;DHT22;53334;51.976;20.144;2023-12-14T08:11:02;25.90;48.20
36652;DHT22;53334;51.976;20.144;2023-12-14T08:13:35;25.90;48.20
36652;DHT22;53334;51.976;20.144;2023-12-14T08:16:09;25.90;48.30
36652;DHT22;53334;51.976;20.144;2023-12-14T08:18:44;25.90;49.10
36652;DHT22;53334;51.976;20.144;2023-12-14T08:21:18;26.00;48.80
36652;DHT22;53334;51.976;20.144;2023-12-14T08:23:51;25.90;48.60
36652;DHT22;53334;51.976;20.144;2023-12-14T08:26:24;25.90;48.70
36652;DHT22;53334;51.976;20.144;2023-12-14T08:28:58;26.00;48.70
36652;DHT22;53334;51.976;20.144;2023-12-14T08:31:31;26.00;48.80
36652;DHT22;53334;51.976;20.144;2023-12-14T08:34:06;26.00;48.80
36652;DHT22;53334;51.976;20.144;2023-12-14T08:36:39;26.00;48.70
36652;DHT22;53334;51.976;20.144;2023-12-14T08:39:12;26.00;48.60
36652;DHT22;53334;51.976;20.144;2023-12-14T08:41:46;26.00;48.50
36652;DHT22;53334;51.976;20.144;2023-12-14T08:44:20;26.00;48.50
36652;DHT22;53334;51.976;20.144;2023-12-14T08:46:53;26.00;48.40
36652;DHT22;53334;51.976;20.144;2023-12-14T08:49:28;26.00;48.70
36652;DHT22;53334;51.976;20.144;2023-12-14T08:52:02;26.00;48.70
36652;DHT22;53334;51.976;20.144;2023-12-14T08:54:36;26.00;48.70
36652;DHT22;53334;51.976;20.144;2023-12-14T08:57:09;26.00;48.60
36652;DHT22;53334;51.976;20.144;2023-12-14T08:59:42;26.00;48.60
36652;DHT22;53334;51.976;20.144;2023-12-14T09:02:16;26.00;48.50
36652;DHT22;53334;51.976;20.144;2023-12-14T09:04:50;26.00;48.40
36652;DHT22;53334;51.976;20.144;2023-12-14T09:07:24;26.00;48.40
36652;DHT22;53334;51.976;20.144;2023-12-14T09:09:58;26.00;48.30
36652;DHT22;53334;51.976;20.144;2023-12-14T09:12:31;26.00;48.30
36652;DHT22;53334;51.976;20.144;2023-12-14T09:15:05;26.00;48.20
36652;DHT22;53334;51.976;20.144;2023-12-14T09:17:38;26.00;48.10
36652;DHT22;53334;51.976;20.144;2023-12-14T09:20:15;26.00;48.00
36652;DHT22;53334;51.976;20.144;2023-12-14T09:22:49;26.00;43.00
36652;DHT22;53334;51.976;20.144;2023-12-14T09:25:22;25.90;37.60
36652;DHT22;53334;51.976;20.144;2023-12-14T09:27:56;25.80;35.50
36652;DHT22;53334;51.976;20.144;2023-12-14T09:30:29;25.80;36.50
36652;DHT22;53334;51.976;20.144;2023-12-14T09:33:02;25.70;36.70
36652;DHT22;53334;51.976;20.144;2023-12-14T09:35:37;25.70;37.00
36652;DHT22;53334;51.976;20.144;2023-12-14T09:38:10;25.60;36.90
36652;DHT22;53334;51.976;20.144;2023-12-14T09:40:45;25.60;38.10
36652;DHT22;53334;51.976;20.144;2023-12-14T09:43:19;25.60;38.10
36652;DHT22;53334;51.976;20.144;2023-12-14T09:45:52;25.60;38.50
36652;DHT22;53334;51.976;20.144;2023-12-14T09:48:28;25.60;39.20
36652;DHT22;53334;51.976;20.144;2023-12-14T09:51:04;25.60;39.80
36652;DHT22;53334;51.976;20.144;2023-12-14T09:53:38;25.70;40.40
36652;DHT22;53334;51.976;20.144;2023-12-14T09:56:11;25.70;40.80
36652;DHT22;53334;51.976;20.144;2023-12-14T09:58:44;25.70;41.20
36652;DHT22;53334;51.976;20.144;2023-12-14T10:01:21;25.70;41.60
36652;DHT22;53334;51.976;20.144;2023-12-14T10:04:08;25.70;41.70
36652;DHT22;53334;51.976;20.144;2023-12-14T10:06:43;25.70;42.00
36652;DHT22;53334;51.976;20.144;2023-12-14T10:09:22;25.80;41.80
36652;DHT22;53334;51.976;20.144;2023-12-14T10:12:04;25.80;42.00
36652;DHT22;53334;51.976;20.144;2023-12-14T10:14:38;25.70;42.10
36652;DHT22;53334;51.976;20.144;2023-12-14T10:17:17;25.70;41.90
36652;DHT22;53334;51.976;20.144;2023-12-14T10:19:51;25.70;42.00
36652;DHT22;53334;51.976;20.144;2023-12-14T10:22:26;25.70;41.80
36652;DHT22;53334;51.976;20.144;2023-12-14T10:25:04;25.70;41.80
36652;DHT22;53334;51.976;20.144;2023-12-14T10:27:41;25.70;42.10
36652;DHT22;53334;51.976;20.144;2023-12-14T10:30:15;25.70;42.00
36652;DHT22;53334;51.976;20.144;2023-12-14T10:32:49;25.80;42.10
36652;DHT22;53334;51.976;20.144;2023-12-14T10:35:22;25.80;42.10
36652;DHT22;53334;51.976;20.144;2023-12-14T10:38:01;25.70;41.90
36652;DHT22;53334;51.976;20.144;2023-12-14T10:40:35;25.70;42.10
36652;DHT22;53334;51.976;20.144;2023-12-14T10:43:12;25.70;42.00
36652;DHT22;53334;51.976;20.144;2023-12-14T10:45:51;25.70;42.10
36652;DHT22;53334;51.976;20.144;2023-12-14T10:48:26;25.70;42.20
36652;DHT22;53334;51.976;20.144;2023-12-14T10:51:02;25.70;42.20
36652;DHT22;53334;51.976;20.144;2023-12-14T10:53:38;25.80;42.40
36652;DHT22;53334;51.976;20.144;2023-12-14T10:56:12;25.80;42.40
36652;DHT22;53334;51.976;20.144;2023-12-14T10:58:46;25.70;42.30
36652;DHT22;53334;51.976;20.144;2023-12-14T11:01:21;25.80;42.50
36652;DHT22;53334;51.976;20.144;2023-12-14T11:03:58;25.70;42.50
36652;DHT22;53334;51.976;20.144;2023-12-14T11:06:35;25.80;42.60
36652;DHT22;53334;51.976;20.144;2023-12-14T11:09:11;25.80;42.60
36652;DHT22;53334;51.976;20.144;2023-12-14T11:11:55;25.80;42.50
36652;DHT22;53334;51.976;20.144;2023-12-14T11:14:29;25.80;42.80
36652;DHT22;53334;51.976;20.144;2023-12-14T11:17:06;25.80;42.70
36652;DHT22;53334;51.976;20.144;2023-12-14T11:19:39;25.80;43.00
36652;DHT22;53334;51.976;20.144;2023-12-14T11:22:22;25.80;43.20
36652;DHT22;53334;51.976;20.144;2023-12-14T11:24:57;25.80;43.30
36652;DHT22;53334;51.976;20.144;2023-12-14T11:27:31;25.80;43.50
36652;DHT22;53334;51.976;20.144;2023-12-14T11:30:07;25.80;43.70
36652;DHT22;53334;51.976;20.144;2023-12-14T11:32:40;25.80;43.70
36652;DHT22;53334;51.976;20.144;2023-12-14T11:35:13;25.80;43.80
36652;DHT22;53334;51.976;20.144;2023-12-14T11:37:47;25.80;44.00
36652;DHT22;53334;51.976;20.144;2023-12-14T11:40:22;25.80;44.20
36652;DHT22;53334;51.976;20.144;2023-12-14T11:42:58;25.80;44.20
36652;DHT22;53334;51.976;20.144;2023-12-14T11:45:32;25.80;44.10
36652;DHT22;53334;51.976;20.144;2023-12-14T11:48:07;25.80;44.30
36652;DHT22;53334;51.976;20.144;2023-12-14T11:50:43;25.80;44.30
36652;DHT22;53334;51.976;20.144;2023-12-14T11:53:16;25.80;44.30
36652;DHT22;53334;51.976;20.144;2023-12-14T11:55:52;25.80;44.60
36652;DHT22;53334;51.976;20.144;2023-12-14T11:58:25;25.90;44.80
36652;DHT22;53334;51.976;20.144;2023-12-14T12:01:11;25.80;44.90
36652;DHT22;53334;51.976;20.144;2023-12-14T12:03:45;25.90;45.50
36652;DHT22;53334;51.976;20.144;2023-12-14T12:06:22;25.90;45.60
36652;DHT22;53334;51.976;20.144;2023-12-14T12:08:56;25.90;45.60
36652;DHT22;53334;51.976;20.144;2023-12-14T12:11:30;25.90;45.70
36652;DHT22;53334;51.976;20.144;2023-12-14T12:14:05;25.90;45.90
36652;DHT22;53334;51.976;20.144;2023-12-14T12:16:38;25.90;45.90
36652;DHT22;53334;51.976;20.144;2023-12-14T12:19:11;25.90;45.80
36652;DHT22;53334;51.976;20.144;2023-12-14T12:21:46;25.90;45.80
36652;DHT22;53334;51.976;20.144;2023-12-14T12:24:20;25.90;45.80
36652;DHT22;53334;51.976;20.144;2023-12-14T12:26:59;25.90;45.60
36652;DHT22;53334;51.976;20.144;2023-12-14T12:29:33;25.90;45.60
36652;DHT22;53334;51.976;20.144;2023-12-14T12:32:06;25.90;45.40
36652;DHT22;53334;51.976;20.144;2023-12-14T12:34:39;25.90;45.40
36652;DHT22;53334;51.976;20.144;2023-12-14T12:37:13;25.90;45.20
36652;DHT22;53334;51.976;20.144;2023-12-14T12:39:46;25.90;44.90
36652;DHT22;53334;51.976;20.144;2023-12-14T12:42:20;25.90;44.70
36652;DHT22;53334;51.976;20.144;2023-12-14T12:44:56;25.90;44.50
36652;DHT22;53334;51.976;20.144;2023-12-14T12:47:30;25.90;44.30
36652;DHT22;53334;51.976;20.144;2023-12-14T12:50:04;25.80;44.10
36652;DHT22;53334;51.976;20.144;2023-12-14T12:52:38;25.80;43.80
36652;DHT22;53334;51.976;20.144;2023-12-14T12:55:11;25.80;43.50
36652;DHT22;53334;51.976;20.144;2023-12-14T12:57:47;25.80;43.80
36652;DHT22;53334;51.976;20.144;2023-12-14T13:00:21;25.80;43.50
36652;DHT22;53334;51.976;20.144;2023-12-14T13:02:54;25.80;43.30
36652;DHT22;53334;51.976;20.144;2023-12-14T13:05:28;25.80;43.20
36652;DHT22;53334;51.976;20.144;2023-12-14T13:08:01;25.80;42.90
36652;DHT22;53334;51.976;20.144;2023-12-14T13:10:34;25.80;42.90
36652;DHT22;53334;51.976;20.144;2023-12-14T13:13:11;25.80;42.80
36652;DHT22;53334;51.976;20.144;2023-12-14T13:15:45;25.80;42.90
36652;DHT22;53334;51.976;20.144;2023-12-14T13:18:18;25.80;42.90
36652;DHT22;53334;51.976;20.144;2023-12-14T13:20:51;25.80;42.70
36652;DHT22;53334;51.976;20.144;2023-12-14T13:23:24;25.80;42.60
36652;DHT22;53334;51.976;20.144;2023-12-14T13:25:58;25.80;42.70
36652;DHT22;53334;51.976;20.144;2023-12-14T13:28:32;25.80;42.60
36652;DHT22;53334;51.976;20.144;2023-12-14T13:31:06;25.80;42.60
36652;DHT22;53334;51.976;20.144;2023-12-14T13:33:39;25.80;42.50
36652;DHT22;53334;51.976;20.144;2023-12-14T13:36:13;25.80;42.60
36652;DHT22;53334;51.976;20.144;2023-12-14T13:38:47;25.80;42.70
36652;DHT22;53334;51.976;20.144;2023-12-14T13:41:20;25.80;42.70
36652;DHT22;53334;51.976;20.144;2023-12-14T13:43:55;25.80;42.90
36652;DHT22;53334;51.976;20.144;2023-12-14T13:46:28;25.80;43.10
36652;DHT22;53334;51.976;20.144;2023-12-14T13:49:02;25.80;43.50
36652;DHT22;53334;51.976;20.144;2023-12-14T13:51:35;25.80;43.70
36652;DHT22;53334;51.976;20.144;2023-12-14T13:54:09;25.80;43.60
36652;DHT22;53334;51.976;20.144;2023-12-14T13:56:42;25.80;43.90
36652;DHT22;53334;51.976;20.144;2023-12-14T13:59:16;25.80;43.70
36652;DHT22;53334;51.976;20.144;2023-12-14T14:01:50;25.80;43.70
36652;DHT22;53334;51.976;20.144;2023-12-14T14:04:24;25.80;43.70
36652;DHT22;53334;51.976;20.144;2023-12-14T14:06:58;25.80;43.80
36652;DHT22;53334;51.976;20.144;2023-12-14T14:09:32;25.90;43.80
36652;DHT22;53334;51.976;20.144;2023-12-14T14:12:05;25.80;43.90
36652;DHT22;53334;51.976;20.144;2023-12-14T14:14:40;25.80;43.90
36652;DHT22;53334;51.976;20.144;2023-12-14T14:17:13;25.80;43.90
36652;DHT22;53334;51.976;20.144;2023-12-14T14:19:47;25.80;43.80
36652;DHT22;53334;51.976;20.144;2023-12-14T14:22:20;25.80;43.80
36652;DHT22;53334;51.976;20.144;2023-12-14T14:24:56;25.80;43.70
36652;DHT22;53334;51.976;20.144;2023-12-14T14:27:30;25.80;43.70
36652;DHT22;53334;51.976;20.144;2023-12-14T14:30:05;25.80;43.70
36652;DHT22;53334;51.976;20.144;2023-12-14T14:32:39;25.80;43.50
36652;DHT22;53334;51.976;20.144;2023-12-14T14:35:12;25.80;43.50
36652;DHT22;53334;51.976;20.144;2023-12-14T14:37:45;25.80;43.60
36652;DHT22;53334;51.976;20.144;2023-12-14T14:40:19;25.80;43.70
36652;DHT22;53334;51.976;20.144;2023-12-14T14:42:52;25.80;44.30
36652;DHT22;53334;51.976;20.144;2023-12-14T14:45:27;25.90;43.90
36652;DHT22;53334;51.976;20.144;2023-12-14T14:48:00;25.90;44.00
36652;DHT22;53334;51.976;20.144;2023-12-14T14:50:34;25.80;44.00
36652;DHT22;53334;51.976;20.144;2023-12-14T14:53:07;25.90;44.30
36652;DHT22;53334;51.976;20.144;2023-12-14T14:55:40;25.90;44.30
36652;DHT22;53334;51.976;20.144;2023-12-14T14:58:13;25.90;44.40
36652;DHT22;53334;51.976;20.144;2023-12-14T15:00:48;25.90;44.40
36652;DHT22;53334;51.976;20.144;2023-12-14T15:03:21;25.90;44.70
36652;DHT22;53334;51.976;20.144;2023-12-14T15:05:54;25.90;44.90
36652;DHT22;53334;51.976;20.144;2023-12-14T15:08:28;25.90;44.90
36652;DHT22;53334;51.976;20.144;2023-12-14T15:11:01;25.90;45.00
36652;DHT22;53334;51.976;20.144;2023-12-14T15:13:35;25.90;45.10
36652;DHT22;53334;51.976;20.144;2023-12-14T15:16:10;25.90;45.10
36652;DHT22;53334;51.976;20.144;2023-12-14T15:18:46;25.90;44.90
36652;DHT22;53334;51.976;20.144;2023-12-14T15:21:19;25.90;44.80
36652;DHT22;53334;51.976;20.144;2023-12-14T15:23:53;25.90;44.80
36652;DHT22;53334;51.976;20.144;2023-12-14T15:26:26;25.90;44.80
36652;DHT22;53334;51.976;20.144;2023-12-14T15:29:03;25.90;44.80
36652;DHT22;53334;51.976;20.144;2023-12-14T15:31:38;25.90;44.80
36652;DHT22;53334;51.976;20.144;2023-12-14T15:34:11;25.90;44.70
36652;DHT22;53334;51.976;20.144;2023-12-14T15:36:45;25.90;44.70
36652;DHT22;53334;51.976;20.144;2023-12-14T15:39:18;25.90;44.70
36652;DHT22;53334;51.976;20.144;2023-12-14T15:41:51;25.90;44.60
36652;DHT22;53334;51.976;20.144;2023-12-14T15:44:24;25.90;44.60
36652;DHT22;53334;51.976;20.144;2023-12-14T15:46:59;25.90;44.50
36652;DHT22;53334;51.976;20.144;2023-12-14T15:49:33;25.90;44.40
36652;DHT22;53334;51.976;20.144;2023-12-14T15:52:06;25.80;44.30
36652;DHT22;53334;51.976;20.144;2023-12-14T15:54:39;25.80;44.30
36652;DHT22;53334;51.976;20.144;2023-12-14T15:57:12;25.80;44.30